Rivne, Ukraine
Current Conditions -  °F | °C
As of 11:30 AM on Thursday 23 Oct 2014 (Local Time) from UKLR Reporting Station
Overcast Overcast  
Wind Chill: 25°   Ceiling: 700
Heat Index: 36°   Visibility: 6mi
Dew Point: 34°   Wind: 18mph
Humidity: 93%   Direction: 80°E
Pressure: 30"   Gusts: NA
Location:  50.62°N, 26.25°E
Report Text: UKLR 230830Z 08008MPS 050V110 9999 OVC007 02/01 Q1016 NOSIG
Loading
Personal Weather Stations






























Interactive Weather Map
Tropical Storm Tracking
New forecast layout! Learn more

10-Day Weather Forecast

Advertisements
Track Severe Weather on mobile